sensor_id;sensor_type;location;lat;lon;timestamp;temperature;humidity
22161;DHT22;49035;48.812;11.762;2023-06-14T00:01:32;8.60;99.90
22161;DHT22;49035;48.812;11.762;2023-06-14T00:04:00;8.50;99.90
22161;DHT22;49035;48.812;11.762;2023-06-14T00:06:28;8.40;99.90
22161;DHT22;49035;48.812;11.762;2023-06-14T00:08:54;8.40;99.90
22161;DHT22;49035;48.812;11.762;2023-06-14T00:11:20;8.40;99.90
22161;DHT22;49035;48.812;11.762;2023-06-14T00:13:46;8.30;99.90
22161;DHT22;49035;48.812;11.762;2023-06-14T00:16:12;8.20;99.90
22161;DHT22;49035;48.812;11.762;2023-06-14T00:18:38;8.20;99.90
22161;DHT22;49035;48.812;11.762;2023-06-14T00:21:04;8.10;99.90
22161;DHT22;49035;48.812;11.762;2023-06-14T00:23:30;8.00;99.90
22161;DHT22;49035;48.812;11.762;2023-06-14T00:25:56;8.00;99.90
22161;DHT22;49035;48.812;11.762;2023-06-14T00:28:21;8.00;99.90
22161;DHT22;49035;48.812;11.762;2023-06-14T00:30:47;7.90;99.90
22161;DHT22;49035;48.812;11.762;2023-06-14T00:33:12;7.80;99.90
22161;DHT22;49035;48.812;11.762;2023-06-14T00:35:38;7.80;99.90
22161;DHT22;49035;48.812;11.762;2023-06-14T00:38:04;7.80;99.90
22161;DHT22;49035;48.812;11.762;2023-06-14T00:40:30;7.80;99.90
22161;DHT22;49035;48.812;11.762;2023-06-14T00:42:55;7.70;99.90
22161;DHT22;49035;48.812;11.762;2023-06-14T00:45:21;7.60;99.90
22161;DHT22;49035;48.812;11.762;2023-06-14T00:47:47;7.50;99.90
22161;DHT22;49035;48.812;11.762;2023-06-14T00:50:14;7.40;99.90
22161;DHT22;49035;48.812;11.762;2023-06-14T00:52:40;7.40;99.90
22161;DHT22;49035;48.812;11.762;2023-06-14T00:55:06;7.40;99.90
22161;DHT22;49035;48.812;11.762;2023-06-14T00:57:32;7.40;99.90
22161;DHT22;49035;48.812;11.762;2023-06-14T00:59:58;7.30;99.90
22161;DHT22;49035;48.812;11.762;2023-06-14T01:02:24;7.40;99.90
22161;DHT22;49035;48.812;11.762;2023-06-14T01:04:50;7.30;99.90
22161;DHT22;49035;48.812;11.762;2023-06-14T01:07:46;7.40;99.90
22161;DHT22;49035;48.812;11.762;2023-06-14T01:15:20;7.50;99.90
22161;DHT22;49035;48.812;11.762;2023-06-14T01:17:46;7.50;99.90
22161;DHT22;49035;48.812;11.762;2023-06-14T01:20:15;7.50;99.90
22161;DHT22;49035;48.812;11.762;2023-06-14T01:22:54;7.50;99.90
22161;DHT22;49035;48.812;11.762;2023-06-14T01:25:20;7.60;99.90
22161;DHT22;49035;48.812;11.762;2023-06-14T01:28:03;8.20;99.90
22161;DHT22;49035;48.812;11.762;2023-06-14T01:30:31;8.30;99.90
22161;DHT22;49035;48.812;11.762;2023-06-14T01:32:58;8.10;99.90
22161;DHT22;49035;48.812;11.762;2023-06-14T01:35:24;7.90;99.90
22161;DHT22;49035;48.812;11.762;2023-06-14T01:37:51;7.80;99.90
22161;DHT22;49035;48.812;11.762;2023-06-14T01:40:19;7.70;99.90
22161;DHT22;49035;48.812;11.762;2023-06-14T01:42:47;7.60;99.90
22161;DHT22;49035;48.812;11.762;2023-06-14T01:45:14;7.40;99.90
22161;DHT22;49035;48.812;11.762;2023-06-14T01:47:41;7.40;99.90
22161;DHT22;49035;48.812;11.762;2023-06-14T01:50:07;7.40;99.90
22161;DHT22;49035;48.812;11.762;2023-06-14T01:52:33;7.30;99.90
22161;DHT22;49035;48.812;11.762;2023-06-14T01:54:58;7.30;99.90
22161;DHT22;49035;48.812;11.762;2023-06-14T01:57:27;7.30;99.90
22161;DHT22;49035;48.812;11.762;2023-06-14T01:59:53;7.20;99.90
22161;DHT22;49035;48.812;11.762;2023-06-14T02:02:19;7.20;99.90
22161;DHT22;49035;48.812;11.762;2023-06-14T02:04:44;7.10;99.90
22161;DHT22;49035;48.812;11.762;2023-06-14T02:07:12;7.00;99.90
22161;DHT22;49035;48.812;11.762;2023-06-14T02:09:38;7.00;99.90
22161;DHT22;49035;48.812;11.762;2023-06-14T02:12:04;7.00;99.90
22161;DHT22;49035;48.812;11.762;2023-06-14T02:14:30;7.00;99.90
22161;DHT22;49035;48.812;11.762;2023-06-14T02:16:55;6.90;99.90
22161;DHT22;49035;48.812;11.762;2023-06-14T02:19:21;6.80;99.90
22161;DHT22;49035;48.812;11.762;2023-06-14T02:21:47;6.70;99.90
22161;DHT22;49035;48.812;11.762;2023-06-14T02:24:13;6.60;99.90
22161;DHT22;49035;48.812;11.762;2023-06-14T02:26:39;6.60;99.90
22161;DHT22;49035;48.812;11.762;2023-06-14T02:29:05;6.50;99.90
22161;DHT22;49035;48.812;11.762;2023-06-14T02:31:32;6.50;99.90
22161;DHT22;49035;48.812;11.762;2023-06-14T02:33:58;6.50;99.90
22161;DHT22;49035;48.812;11.762;2023-06-14T02:36:23;6.50;99.90
22161;DHT22;49035;48.812;11.762;2023-06-14T02:38:50;6.40;99.90
22161;DHT22;49035;48.812;11.762;2023-06-14T02:41:15;6.40;99.90
22161;DHT22;49035;48.812;11.762;2023-06-14T02:43:41;6.30;99.90
22161;DHT22;49035;48.812;11.762;2023-06-14T02:46:07;6.20;99.90
22161;DHT22;49035;48.812;11.762;2023-06-14T02:48:32;6.20;99.90
22161;DHT22;49035;48.812;11.762;2023-06-14T02:50:58;6.10;99.90
22161;DHT22;49035;48.812;11.762;2023-06-14T02:53:23;6.10;99.90
22161;DHT22;49035;48.812;11.762;2023-06-14T02:55:49;6.10;99.90
22161;DHT22;49035;48.812;11.762;2023-06-14T02:58:15;6.10;99.90
22161;DHT22;49035;48.812;11.762;2023-06-14T03:00:41;5.90;99.90
22161;DHT22;49035;48.812;11.762;2023-06-14T03:03:07;6.00;99.90
22161;DHT22;49035;48.812;11.762;2023-06-14T03:05:44;6.00;99.90
22161;DHT22;49035;48.812;11.762;2023-06-14T03:08:15;5.90;99.90
22161;DHT22;49035;48.812;11.762;2023-06-14T03:10:43;5.90;99.90
22161;DHT22;49035;48.812;11.762;2023-06-14T03:13:09;5.80;99.90
22161;DHT22;49035;48.812;11.762;2023-06-14T03:15:36;5.80;99.90
22161;DHT22;49035;48.812;11.762;2023-06-14T03:18:02;5.80;99.90
22161;DHT22;49035;48.812;11.762;2023-06-14T03:20:29;5.80;99.90
22161;DHT22;49035;48.812;11.762;2023-06-14T03:22:59;5.80;99.90
22161;DHT22;49035;48.812;11.762;2023-06-14T03:25:25;5.80;99.90
22161;DHT22;49035;48.812;11.762;2023-06-14T03:27:51;6.00;99.90
22161;DHT22;49035;48.812;11.762;2023-06-14T03:30:17;6.20;99.90
22161;DHT22;49035;48.812;11.762;2023-06-14T03:32:42;6.10;99.90
22161;DHT22;49035;48.812;11.762;2023-06-14T03:35:08;6.20;99.90
22161;DHT22;49035;48.812;11.762;2023-06-14T03:37:35;6.20;99.90
22161;DHT22;49035;48.812;11.762;2023-06-14T03:40:01;6.20;99.90
22161;DHT22;49035;48.812;11.762;2023-06-14T03:42:26;6.40;99.90
22161;DHT22;49035;48.812;11.762;2023-06-14T03:44:52;6.40;99.90
22161;DHT22;49035;48.812;11.762;2023-06-14T03:47:17;6.50;99.90
22161;DHT22;49035;48.812;11.762;2023-06-14T03:49:43;6.50;99.90
22161;DHT22;49035;48.812;11.762;2023-06-14T03:52:08;6.60;99.90
22161;DHT22;49035;48.812;11.762;2023-06-14T03:54:34;6.70;99.90
22161;DHT22;49035;48.812;11.762;2023-06-14T03:56:59;6.70;99.90
22161;DHT22;49035;48.812;11.762;2023-06-14T03:59:26;6.80;99.90
22161;DHT22;49035;48.812;11.762;2023-06-14T04:01:53;6.90;99.90
22161;DHT22;49035;48.812;11.762;2023-06-14T04:04:19;7.00;99.90
22161;DHT22;49035;48.812;11.762;2023-06-14T04:06:44;7.10;99.90
22161;DHT22;49035;48.812;11.762;2023-06-14T04:09:13;7.30;99.90
22161;DHT22;49035;48.812;11.762;2023-06-14T04:11:39;7.80;99.90
22161;DHT22;49035;48.812;11.762;2023-06-14T04:14:05;8.60;99.90
22161;DHT22;49035;48.812;11.762;2023-06-14T04:16:31;9.40;99.90
22161;DHT22;49035;48.812;11.762;2023-06-14T04:18:57;10.30;99.90
22161;DHT22;49035;48.812;11.762;2023-06-14T04:21:23;11.20;99.90
22161;DHT22;49035;48.812;11.762;2023-06-14T04:23:49;12.10;99.90
22161;DHT22;49035;48.812;11.762;2023-06-14T04:26:18;13.00;99.90
22161;DHT22;49035;48.812;11.762;2023-06-14T04:28:45;13.90;99.90
22161;DHT22;49035;48.812;11.762;2023-06-14T04:31:12;14.60;99.90
22161;DHT22;49035;48.812;11.762;2023-06-14T04:33:38;15.30;99.90
22161;DHT22;49035;48.812;11.762;2023-06-14T04:36:11;16.00;99.90
22161;DHT22;49035;48.812;11.762;2023-06-14T04:38:39;16.70;97.80
22161;DHT22;49035;48.812;11.762;2023-06-14T04:41:04;17.30;95.00
22161;DHT22;49035;48.812;11.762;2023-06-14T04:43:31;17.80;92.30
22161;DHT22;49035;48.812;11.762;2023-06-14T04:46:02;18.20;92.20
22161;DHT22;49035;48.812;11.762;2023-06-14T04:48:28;18.70;90.10
22161;DHT22;49035;48.812;11.762;2023-06-14T04:50:54;19.50;84.50
22161;DHT22;49035;48.812;11.762;2023-06-14T04:53:20;20.00;81.50
22161;DHT22;49035;48.812;11.762;2023-06-14T04:55:48;20.40;74.10
22161;DHT22;49035;48.812;11.762;2023-06-14T04:58:13;20.70;70.80
22161;DHT22;49035;48.812;11.762;2023-06-14T05:00:39;21.00;71.70
22161;DHT22;49035;48.812;11.762;2023-06-14T05:03:05;21.00;74.40
22161;DHT22;49035;48.812;11.762;2023-06-14T05:05:31;21.20;74.60
22161;DHT22;49035;48.812;11.762;2023-06-14T05:07:57;21.20;69.30
22161;DHT22;49035;48.812;11.762;2023-06-14T05:10:24;21.70;67.20
22161;DHT22;49035;48.812;11.762;2023-06-14T05:12:49;21.90;66.70
22161;DHT22;49035;48.812;11.762;2023-06-14T05:15:15;22.10;66.00
22161;DHT22;49035;48.812;11.762;2023-06-14T05:17:41;22.40;68.00
22161;DHT22;49035;48.812;11.762;2023-06-14T05:20:07;22.40;65.70
22161;DHT22;49035;48.812;11.762;2023-06-14T05:22:35;22.30;66.10
22161;DHT22;49035;48.812;11.762;2023-06-14T05:25:01;22.50;66.20
22161;DHT22;49035;48.812;11.762;2023-06-14T05:27:27;22.80;66.90
22161;DHT22;49035;48.812;11.762;2023-06-14T05:29:52;23.10;64.50
22161;DHT22;49035;48.812;11.762;2023-06-14T05:32:21;23.20;63.60
22161;DHT22;49035;48.812;11.762;2023-06-14T05:34:46;23.50;62.80
22161;DHT22;49035;48.812;11.762;2023-06-14T05:37:12;24.00;58.90
22161;DHT22;49035;48.812;11.762;2023-06-14T05:39:38;24.10;59.60
22161;DHT22;49035;48.812;11.762;2023-06-14T05:42:04;24.20;59.20
22161;DHT22;49035;48.812;11.762;2023-06-14T05:44:29;24.30;57.60
22161;DHT22;49035;48.812;11.762;2023-06-14T05:46:55;24.50;57.90
22161;DHT22;49035;48.812;11.762;2023-06-14T05:49:21;24.80;55.60
22161;DHT22;49035;48.812;11.762;2023-06-14T05:51:46;25.40;58.10
22161;DHT22;49035;48.812;11.762;2023-06-14T05:54:12;25.50;57.50
22161;DHT22;49035;48.812;11.762;2023-06-14T05:56:37;25.70;52.50
22161;DHT22;49035;48.812;11.762;2023-06-14T05:59:03;25.10;53.60
22161;DHT22;49035;48.812;11.762;2023-06-14T06:01:28;25.00;54.00
22161;DHT22;49035;48.812;11.762;2023-06-14T06:03:54;25.20;56.40
22161;DHT22;49035;48.812;11.762;2023-06-14T06:06:19;25.10;56.40
22161;DHT22;49035;48.812;11.762;2023-06-14T06:08:45;25.10;55.90
22161;DHT22;49035;48.812;11.762;2023-06-14T06:11:11;25.20;56.90
22161;DHT22;49035;48.812;11.762;2023-06-14T06:13:38;25.60;53.30
22161;DHT22;49035;48.812;11.762;2023-06-14T06:16:04;26.00;52.80
22161;DHT22;49035;48.812;11.762;2023-06-14T06:18:30;26.00;53.40
22161;DHT22;49035;48.812;11.762;2023-06-14T06:20:55;26.00;53.20
22161;DHT22;49035;48.812;11.762;2023-06-14T06:23:21;26.00;53.20
22161;DHT22;49035;48.812;11.762;2023-06-14T06:25:46;26.10;49.90
22161;DHT22;49035;48.812;11.762;2023-06-14T06:28:12;25.80;52.10
22161;DHT22;49035;48.812;11.762;2023-06-14T06:30:38;25.70;52.40
22161;DHT22;49035;48.812;11.762;2023-06-14T06:33:03;25.60;52.00
22161;DHT22;49035;48.812;11.762;2023-06-14T06:35:29;25.30;51.40
22161;DHT22;49035;48.812;11.762;2023-06-14T06:37:56;24.90;50.30
22161;DHT22;49035;48.812;11.762;2023-06-14T06:40:22;24.50;52.20
22161;DHT22;49035;48.812;11.762;2023-06-14T06:42:47;24.00;55.20
22161;DHT22;49035;48.812;11.762;2023-06-14T06:45:13;23.90;55.80
22161;DHT22;49035;48.812;11.762;2023-06-14T06:47:39;24.00;55.00
22161;DHT22;49035;48.812;11.762;2023-06-14T06:50:05;24.40;54.40
22161;DHT22;49035;48.812;11.762;2023-06-14T06:52:31;24.10;54.20
22161;DHT22;49035;48.812;11.762;2023-06-14T06:54:57;23.90;54.40
22161;DHT22;49035;48.812;11.762;2023-06-14T06:57:23;23.60;56.60
22161;DHT22;49035;48.812;11.762;2023-06-14T06:59:49;23.50;54.30
22161;DHT22;49035;48.812;11.762;2023-06-14T07:02:15;23.60;57.40
22161;DHT22;49035;48.812;11.762;2023-06-14T07:04:41;23.70;54.90
22161;DHT22;49035;48.812;11.762;2023-06-14T07:07:06;23.00;55.20
22161;DHT22;49035;48.812;11.762;2023-06-14T07:09:34;22.20;56.70
22161;DHT22;49035;48.812;11.762;2023-06-14T07:12:00;21.90;59.40
22161;DHT22;49035;48.812;11.762;2023-06-14T07:14:25;21.80;59.30
22161;DHT22;49035;48.812;11.762;2023-06-14T07:16:51;21.70;60.70
22161;DHT22;49035;48.812;11.762;2023-06-14T07:19:16;22.00;60.30
22161;DHT22;49035;48.812;11.762;2023-06-14T07:21:42;22.10;58.40
22161;DHT22;49035;48.812;11.762;2023-06-14T07:24:11;22.30;59.40
22161;DHT22;49035;48.812;11.762;2023-06-14T07:26:37;22.40;60.50
22161;DHT22;49035;48.812;11.762;2023-06-14T07:29:02;22.40;58.40
22161;DHT22;49035;48.812;11.762;2023-06-14T07:31:28;22.50;61.00
22161;DHT22;49035;48.812;11.762;2023-06-14T07:33:54;22.60;58.60
22161;DHT22;49035;48.812;11.762;2023-06-14T07:36:19;23.40;61.00
22161;DHT22;49035;48.812;11.762;2023-06-14T07:38:46;24.10;57.00
22161;DHT22;49035;48.812;11.762;2023-06-14T07:41:11;24.60;57.00
22161;DHT22;49035;48.812;11.762;2023-06-14T07:43:37;25.00;54.90
22161;DHT22;49035;48.812;11.762;2023-06-14T07:46:04;24.90;53.40
22161;DHT22;49035;48.812;11.762;2023-06-14T07:48:30;24.40;54.90
22161;DHT22;49035;48.812;11.762;2023-06-14T07:50:56;24.30;55.10
22161;DHT22;49035;48.812;11.762;2023-06-14T07:53:21;24.80;53.70
22161;DHT22;49035;48.812;11.762;2023-06-14T07:55:47;25.20;53.20
22161;DHT22;49035;48.812;11.762;2023-06-14T07:58:14;25.00;54.70
22161;DHT22;49035;48.812;11.762;2023-06-14T08:00:39;24.70;52.50
22161;DHT22;49035;48.812;11.762;2023-06-14T08:03:05;24.40;53.50
22161;DHT22;49035;48.812;11.762;2023-06-14T08:05:30;23.90;55.00
22161;DHT22;49035;48.812;11.762;2023-06-14T08:07:56;24.00;56.30
22161;DHT22;49035;48.812;11.762;2023-06-14T08:10:22;24.20;55.80
22161;DHT22;49035;48.812;11.762;2023-06-14T08:12:48;24.40;53.10
22161;DHT22;49035;48.812;11.762;2023-06-14T08:15:15;24.40;53.10
22161;DHT22;49035;48.812;11.762;2023-06-14T08:17:43;24.50;53.60
22161;DHT22;49035;48.812;11.762;2023-06-14T08:20:09;24.60;55.00
22161;DHT22;49035;48.812;11.762;2023-06-14T08:22:36;24.60;54.00
22161;DHT22;49035;48.812;11.762;2023-06-14T08:25:03;24.70;56.10
22161;DHT22;49035;48.812;11.762;2023-06-14T08:27:29;25.00;52.10
22161;DHT22;49035;48.812;11.762;2023-06-14T08:29:55;25.00;52.90
22161;DHT22;49035;48.812;11.762;2023-06-14T08:32:21;25.40;53.00
22161;DHT22;49035;48.812;11.762;2023-06-14T08:34:47;25.90;51.90
22161;DHT22;49035;48.812;11.762;2023-06-14T08:37:12;26.30;51.60
22161;DHT22;49035;48.812;11.762;2023-06-14T08:39:38;26.30;51.20
22161;DHT22;49035;48.812;11.762;2023-06-14T08:42:05;26.40;51.20
22161;DHT22;49035;48.812;11.762;2023-06-14T08:44:33;26.00;50.30
22161;DHT22;49035;48.812;11.762;2023-06-14T08:47:00;25.90;51.70
22161;DHT22;49035;48.812;11.762;2023-06-14T08:49:26;26.00;49.10
22161;DHT22;49035;48.812;11.762;2023-06-14T08:52:00;25.60;48.60
22161;DHT22;49035;48.812;11.762;2023-06-14T08:54:27;25.30;53.30
22161;DHT22;49035;48.812;11.762;2023-06-14T08:56:55;25.50;49.60
22161;DHT22;49035;48.812;11.762;2023-06-14T08:59:25;25.30;50.20
22161;DHT22;49035;48.812;11.762;2023-06-14T09:01:54;25.70;52.60
22161;DHT22;49035;48.812;11.762;2023-06-14T09:04:23;25.50;48.20
22161;DHT22;49035;48.812;11.762;2023-06-14T09:06:50;25.30;52.60
22161;DHT22;49035;48.812;11.762;2023-06-14T09:09:19;25.30;51.90
22161;DHT22;49035;48.812;11.762;2023-06-14T09:11:46;25.80;51.60
22161;DHT22;49035;48.812;11.762;2023-06-14T09:14:11;26.40;50.30
22161;DHT22;49035;48.812;11.762;2023-06-14T09:16:37;26.70;50.30
22161;DHT22;49035;48.812;11.762;2023-06-14T09:19:02;26.50;47.20
22161;DHT22;49035;48.812;11.762;2023-06-14T09:21:34;25.70;50.00
22161;DHT22;49035;48.812;11.762;2023-06-14T09:24:01;25.80;51.30
22161;DHT22;49035;48.812;11.762;2023-06-14T09:26:28;25.80;48.00
22161;DHT22;49035;48.812;11.762;2023-06-14T09:28:53;25.70;49.10
22161;DHT22;49035;48.812;11.762;2023-06-14T09:31:21;25.60;52.40
22161;DHT22;49035;48.812;11.762;2023-06-14T09:33:49;26.10;49.40
22161;DHT22;49035;48.812;11.762;2023-06-14T09:36:21;26.10;49.60
22161;DHT22;49035;48.812;11.762;2023-06-14T09:38:59;26.30;48.10
22161;DHT22;49035;48.812;11.762;2023-06-14T09:41:33;25.90;47.60
22161;DHT22;49035;48.812;11.762;2023-06-14T09:44:00;25.90;48.30
22161;DHT22;49035;48.812;11.762;2023-06-14T09:46:28;26.00;47.30
22161;DHT22;49035;48.812;11.762;2023-06-14T09:48:57;26.50;47.00
22161;DHT22;49035;48.812;11.762;2023-06-14T09:51:23;27.00;46.80
22161;DHT22;49035;48.812;11.762;2023-06-14T09:53:49;27.80;47.80
22161;DHT22;49035;48.812;11.762;2023-06-14T09:56:28;27.80;45.00
22161;DHT22;49035;48.812;11.762;2023-06-14T09:58:56;27.50;41.70
22161;DHT22;49035;48.812;11.762;2023-06-14T10:01:24;26.90;44.70
22161;DHT22;49035;48.812;11.762;2023-06-14T10:04:01;26.40;47.80
22161;DHT22;49035;48.812;11.762;2023-06-14T10:06:28;26.30;47.10
22161;DHT22;49035;48.812;11.762;2023-06-14T10:08:57;26.30;47.70
22161;DHT22;49035;48.812;11.762;2023-06-14T10:11:26;26.10;46.60
22161;DHT22;49035;48.812;11.762;2023-06-14T10:13:52;26.40;48.10
22161;DHT22;49035;48.812;11.762;2023-06-14T10:16:32;26.50;44.30
22161;DHT22;49035;48.812;11.762;2023-06-14T10:21:55;26.80;46.20
22161;DHT22;49035;48.812;11.762;2023-06-14T10:24:33;25.80;47.30
22161;DHT22;49035;48.812;11.762;2023-06-14T10:26:59;26.50;47.40
22161;DHT22;49035;48.812;11.762;2023-06-14T10:29:27;26.90;45.60
22161;DHT22;49035;48.812;11.762;2023-06-14T10:31:58;27.00;44.10
22161;DHT22;49035;48.812;11.762;2023-06-14T10:34:29;26.80;46.90
22161;DHT22;49035;48.812;11.762;2023-06-14T10:37:11;26.80;45.00
22161;DHT22;49035;48.812;11.762;2023-06-14T10:39:42;26.00;46.60
22161;DHT22;49035;48.812;11.762;2023-06-14T10:42:09;24.60;47.90
22161;DHT22;49035;48.812;11.762;2023-06-14T10:44:55;24.10;48.40
22161;DHT22;49035;48.812;11.762;2023-06-14T10:47:34;24.70;48.90
22161;DHT22;49035;48.812;11.762;2023-06-14T10:50:08;25.70;49.20
22161;DHT22;49035;48.812;11.762;2023-06-14T10:52:41;26.70;46.90
22161;DHT22;49035;48.812;11.762;2023-06-14T10:55:17;27.30;46.50
22161;DHT22;49035;48.812;11.762;2023-06-14T10:57:45;28.30;44.50
22161;DHT22;49035;48.812;11.762;2023-06-14T11:00:12;28.70;40.80
22161;DHT22;49035;48.812;11.762;2023-06-14T11:05:56;28.20;43.30
22161;DHT22;49035;48.812;11.762;2023-06-14T11:11:07;26.10;44.70
22161;DHT22;49035;48.812;11.762;2023-06-14T11:13:33;25.80;46.80
22161;DHT22;49035;48.812;11.762;2023-06-14T11:15:59;25.70;44.70
22161;DHT22;49035;48.812;11.762;2023-06-14T11:18:24;25.70;43.70
22161;DHT22;49035;48.812;11.762;2023-06-14T11:20:52;25.90;45.10
22161;DHT22;49035;48.812;11.762;2023-06-14T11:23:18;25.60;43.90
22161;DHT22;49035;48.812;11.762;2023-06-14T11:25:49;25.50;46.30
22161;DHT22;49035;48.812;11.762;2023-06-14T11:28:14;25.50;49.00
22161;DHT22;49035;48.812;11.762;2023-06-14T11:30:40;25.30;47.60
22161;DHT22;49035;48.812;11.762;2023-06-14T11:33:09;25.30;49.30
22161;DHT22;49035;48.812;11.762;2023-06-14T11:35:36;25.40;46.60
22161;DHT22;49035;48.812;11.762;2023-06-14T11:38:01;25.20;45.90
22161;DHT22;49035;48.812;11.762;2023-06-14T11:40:27;26.00;48.00
22161;DHT22;49035;48.812;11.762;2023-06-14T11:43:00;26.90;45.80
22161;DHT22;49035;48.812;11.762;2023-06-14T11:45:26;27.70;41.70
22161;DHT22;49035;48.812;11.762;2023-06-14T11:47:55;27.50;43.00
22161;DHT22;49035;48.812;11.762;2023-06-14T11:50:22;27.10;41.90
22161;DHT22;49035;48.812;11.762;2023-06-14T11:52:58;26.90;41.60
22161;DHT22;49035;48.812;11.762;2023-06-14T11:55:25;26.90;43.90
22161;DHT22;49035;48.812;11.762;2023-06-14T11:57:53;27.80;44.20
22161;DHT22;49035;48.812;11.762;2023-06-14T12:00:19;29.00;43.80
22161;DHT22;49035;48.812;11.762;2023-06-14T12:02:53;30.00;41.10
22161;DHT22;49035;48.812;11.762;2023-06-14T12:05:23;30.60;39.30
22161;DHT22;49035;48.812;11.762;2023-06-14T12:07:50;30.60;36.90
22161;DHT22;49035;48.812;11.762;2023-06-14T12:10:16;30.60;37.90
22161;DHT22;49035;48.812;11.762;2023-06-14T12:12:42;30.00;37.30
22161;DHT22;49035;48.812;11.762;2023-06-14T12:15:09;30.20;37.30
22161;DHT22;49035;48.812;11.762;2023-06-14T12:17:37;30.40;37.60
22161;DHT22;49035;48.812;11.762;2023-06-14T12:20:11;30.10;37.60
22161;DHT22;49035;48.812;11.762;2023-06-14T12:22:37;29.00;35.70
22161;DHT22;49035;48.812;11.762;2023-06-14T12:25:04;28.80;39.20
22161;DHT22;49035;48.812;11.762;2023-06-14T12:27:30;27.80;40.80
22161;DHT22;49035;48.812;11.762;2023-06-14T12:30:00;26.70;44.10
22161;DHT22;49035;48.812;11.762;2023-06-14T12:32:26;26.20;44.30
22161;DHT22;49035;48.812;11.762;2023-06-14T12:34:52;25.90;44.70
22161;DHT22;49035;48.812;11.762;2023-06-14T12:37:18;25.80;45.10
22161;DHT22;49035;48.812;11.762;2023-06-14T12:39:43;25.60;45.30
22161;DHT22;49035;48.812;11.762;2023-06-14T12:42:09;25.10;45.70
22161;DHT22;49035;48.812;11.762;2023-06-14T12:44:34;24.50;47.20
22161;DHT22;49035;48.812;11.762;2023-06-14T12:47:06;24.50;47.70
22161;DHT22;49035;48.812;11.762;2023-06-14T12:49:32;24.80;47.20
22161;DHT22;49035;48.812;11.762;2023-06-14T12:51:57;25.70;47.80
22161;DHT22;49035;48.812;11.762;2023-06-14T12:54:23;26.40;45.40
22161;DHT22;49035;48.812;11.762;2023-06-14T12:56:51;26.80;44.30
22161;DHT22;49035;48.812;11.762;2023-06-14T12:59:17;26.50;44.60
22161;DHT22;49035;48.812;11.762;2023-06-14T13:01:43;26.10;44.10
22161;DHT22;49035;48.812;11.762;2023-06-14T13:04:10;25.60;46.00
22161;DHT22;49035;48.812;11.762;2023-06-14T13:06:36;25.90;48.30
22161;DHT22;49035;48.812;11.762;2023-06-14T13:09:01;26.90;44.50
22161;DHT22;49035;48.812;11.762;2023-06-14T13:11:29;27.40;43.20
22161;DHT22;49035;48.812;11.762;2023-06-14T13:13:55;27.80;43.00
22161;DHT22;49035;48.812;11.762;2023-06-14T13:16:21;27.30;44.30
22161;DHT22;49035;48.812;11.762;2023-06-14T13:18:47;26.50;48.10
22161;DHT22;49035;48.812;11.762;2023-06-14T13:21:12;26.70;44.80
22161;DHT22;49035;48.812;11.762;2023-06-14T13:23:38;26.40;43.30
22161;DHT22;49035;48.812;11.762;2023-06-14T13:26:03;26.70;45.40
22161;DHT22;49035;48.812;11.762;2023-06-14T13:28:29;26.40;45.00
22161;DHT22;49035;48.812;11.762;2023-06-14T13:30:55;26.40;43.30
22161;DHT22;49035;48.812;11.762;2023-06-14T13:33:21;25.80;44.30
22161;DHT22;49035;48.812;11.762;2023-06-14T13:35:47;24.70;45.50
22161;DHT22;49035;48.812;11.762;2023-06-14T13:38:14;25.30;47.50
22161;DHT22;49035;48.812;11.762;2023-06-14T13:40:40;26.60;44.00
22161;DHT22;49035;48.812;11.762;2023-06-14T13:43:06;27.70;42.40
22161;DHT22;49035;48.812;11.762;2023-06-14T13:45:32;29.40;40.40
22161;DHT22;49035;48.812;11.762;2023-06-14T13:47:57;29.60;38.10
22161;DHT22;49035;48.812;11.762;2023-06-14T13:50:23;29.90;43.50
22161;DHT22;49035;48.812;11.762;2023-06-14T13:52:48;30.10;40.70
22161;DHT22;49035;48.812;11.762;2023-06-14T13:55:14;29.10;40.60
22161;DHT22;49035;48.812;11.762;2023-06-14T13:57:40;27.60;43.00
22161;DHT22;49035;48.812;11.762;2023-06-14T14:00:06;26.30;45.70
22161;DHT22;49035;48.812;11.762;2023-06-14T14:02:31;25.80;46.20
22161;DHT22;49035;48.812;11.762;2023-06-14T14:04:57;25.20;47.60
22161;DHT22;49035;48.812;11.762;2023-06-14T14:07:23;25.10;48.20
22161;DHT22;49035;48.812;11.762;2023-06-14T14:09:49;24.90;48.70
22161;DHT22;49035;48.812;11.762;2023-06-14T14:12:14;24.90;51.20
22161;DHT22;49035;48.812;11.762;2023-06-14T14:14:40;24.90;47.70
22161;DHT22;49035;48.812;11.762;2023-06-14T14:17:06;24.90;50.10
22161;DHT22;49035;48.812;11.762;2023-06-14T14:19:32;24.80;48.70
22161;DHT22;49035;48.812;11.762;2023-06-14T14:21:58;24.80;50.20
22161;DHT22;49035;48.812;11.762;2023-06-14T14:24:23;24.70;49.70
22161;DHT22;49035;48.812;11.762;2023-06-14T14:26:49;24.70;48.80
22161;DHT22;49035;48.812;11.762;2023-06-14T14:29:16;24.60;48.40
22161;DHT22;49035;48.812;11.762;2023-06-14T14:31:42;24.70;49.90
22161;DHT22;49035;48.812;11.762;2023-06-14T14:34:07;24.50;48.40
22161;DHT22;49035;48.812;11.762;2023-06-14T14:36:33;24.60;49.90
22161;DHT22;49035;48.812;11.762;2023-06-14T14:39:01;24.50;49.80
22161;DHT22;49035;48.812;11.762;2023-06-14T14:41:27;24.60;49.60
22161;DHT22;49035;48.812;11.762;2023-06-14T14:43:53;25.40;50.00
22161;DHT22;49035;48.812;11.762;2023-06-14T14:46:18;26.20;48.80
22161;DHT22;49035;48.812;11.762;2023-06-14T14:48:44;27.00;47.50
22161;DHT22;49035;48.812;11.762;2023-06-14T14:51:10;27.70;46.40
22161;DHT22;49035;48.812;11.762;2023-06-14T14:53:35;28.70;43.50
22161;DHT22;49035;48.812;11.762;2023-06-14T14:56:01;29.50;41.30
22161;DHT22;49035;48.812;11.762;2023-06-14T14:58:26;29.00;41.10
22161;DHT22;49035;48.812;11.762;2023-06-14T15:00:52;28.90;42.00
22161;DHT22;49035;48.812;11.762;2023-06-14T15:03:18;28.30;42.00
22161;DHT22;49035;48.812;11.762;2023-06-14T15:05:43;27.90;43.10
22161;DHT22;49035;48.812;11.762;2023-06-14T15:08:09;27.10;43.00
22161;DHT22;49035;48.812;11.762;2023-06-14T15:10:38;25.90;45.30
22161;DHT22;49035;48.812;11.762;2023-06-14T15:13:08;25.20;46.00
22161;DHT22;49035;48.812;11.762;2023-06-14T15:15:35;24.90;48.50
22161;DHT22;49035;48.812;11.762;2023-06-14T15:18:01;24.70;47.90
22161;DHT22;49035;48.812;11.762;2023-06-14T15:20:26;24.40;47.20
22161;DHT22;49035;48.812;11.762;2023-06-14T15:22:53;24.60;47.90
22161;DHT22;49035;48.812;11.762;2023-06-14T15:25:21;25.10;47.10
22161;DHT22;49035;48.812;11.762;2023-06-14T15:27:46;26.70;46.00
22161;DHT22;49035;48.812;11.762;2023-06-14T15:30:12;28.40;46.70
22161;DHT22;49035;48.812;11.762;2023-06-14T15:32:38;29.80;41.80